METAR Data
IDs: Format: Raw Decoded Include TAF

Data at: 2149 UTC 01 Dec 2021

METAR for:KZZV (Zanesville Muni, OH, US)
Text:KZZV 012053Z AUTO 13006KT 5SM -RA BR FEW027 OVC050 06/04 A2997 RMK AO2 SLP157 P0004 60008 T00560044 58026
Temperature: 5.6°C ( 42°F)
Dewpoint: 4.4°C ( 40°F) [RH = 92%]
Pressure (altimeter):29.97 inches Hg (1015.0 mb) [Sea level pressure: 1015.7 mb]
Winds:from the SE (130 degrees) at 7 MPH (6 knots; 3.1 m/s)
Visibility: 5 sm ( 8 km)
Ceiling:5000 feet AGL
Clouds: few clouds at 2700 feet AGL, overcast cloud deck at 5000 feet AGL
Weather:-RA BR (light rain, mist)
QC Flag:automated observation with no human augmentation